Viernes, 28 de Noviembre del 2014

portal contactenos mapa del sitio buscar Revisar Correo Corporativo

|Reporte METAR por Reginal » ||Reporte TAF por Reginal » ||Reporte METAR, TAF y SIN覲TICO »

Reporte METAR por Regional

|| La Paz || Santa Cruz || Cochabamba || Beni - Pando ||

Informe METAR emitido cada hora.

Regional La Paz

ESTACIÓN

AEROPUERTO

HORA UTC

DESCRIPCIÓN

SLRY

Reyes

14-18S|67-21W

22:00

SLRY 272200Z 00000KT 9999 FEW010 BKN025 OVC080 24/22 Q1011 A2987 HR88 RWY HUM OPR 1 000M C212=

SLRQ

Rurrenabaque

14-25S|67-29W

22:00

SLRQ 272200Z 00000KT 9999 SCT004 OVC015 25/24 Q1010 A2984 HR95=

SLAP

Apolo

14-44S|68-24W

-

Mensaje no Recibido

SLSB

San Borja

14-51S|66-44W

23:00

SLSB 272300Z 00000KT 9999 FEW023 OVC200 25/24 Q1011 A2986 HR93 RWY WET OPR C210=

SLLP

Internaci贸nal El Alto

16-08S|68-10W

08:00

SLLP 280800Z 10006KT 9999 FEW005 SCT200 05/03 Q1035 A3058 626.5 AC HR88 NOSIG=

SLCN

Chara帽a

17-35S|69-25W

-

Mensaje no Recibido

SLOR

Oruro

17-57S|67-04W

21:00

SLOR 272100Z 07015G25KT 9999 FEW017 FEW020CB BKN200 18/01 Q1031 A3045 653.3 CB/DIST/NE/SE AC HR33=

SLUY

Uyuni

20-27S|62-52W

19:00

SLUY 271900Z 34015KT 9999 FEW015 17/01 Q1031 A3945 656.2 CI HR36=

Regional Cochabamba

ESTACIÓN

AEROPUERTO

HORA UTC

DESCRIPCIÓN

SLCB

Cochabamba

17-25S|66-10W

08:00

SLCB 280800Z 00000KT 8000 FEW025 11/09 Q1025 A3029 752.0 HR91 FU CI NOSIG=

SLSU

Sucre

19-00S|65-17W

23:00

SLSU 272300Z 03011KT 9999 FEW012 BKN015 FEW030CB BKN200 14/09 Q1028 A3038 HR71 CB S=

SLPO

Potos铆

19-32S|65-43W

21:00

SLPO 272100Z 06010KT 9999 SCT020 BKN200 16/02 Q1032 A3047 HR39=

SLAG

Monteagudo

19-49S|63-58W

21:00

SLAG 272100Z 00000KT 9999 SCT030 BKN070 23/19 Q1018 A3006 HR85 RWY CLSD=

SLVM

Villamontes

21-15S|63-24W

21:00

SLVM 272100Z 00000KT 9999 FEW020 BKN070 BKN200 27/21 Q1012 A2988 HR73=

SLTJ

Tarija

21-33S|64-42W

08:00

SLTJ 280800Z 00000KT 9999 NSC 15/13 Q1019 A3011 HR88=

SLYA

Yacuiba

21-57S|63-39W

23:00

SLYA 272300Z 00000KT 9999 SCT070 BKN200 23/21 Q1015 A2999 HR86=

SLBJ

Bermejo

22-46S|64-18W

21:00

SLBJ 272100Z 36006KT 9999 SCT013 BKN070 26/22 Q1011 A2985 HR81=

Regional Santa Cruz

ESTACIÓN

AEROPUERTO

HORA UTC

DESCRIPCIÓN

SLAS

Ascenci贸n de Guarayos

15-55S|63-09W

23:00

SLAS 272300Z 34005KT 9999 SCT017 FEW030CB OVC070 23/23 Q1011 A2986 HR97 CB NE RWY WET OPR=

SLCP

Concepci贸n

16-08S|62-01W

22:00

SLCP 272200Z 00000KT 9999 BKN017 FEW027CB OVC070 23/23 Q1012 A2988 RH98 CB NW RWY WET OPR=

SLJV

San Javier

16-16S|62-28W

22:00

SLJV 272200Z 00000KT 9999 NSC 25/22 Q1009 A2980 HR86 RWY NML=

SLTI

San Mat铆as

16-20S|58-24W

22:00

SLTI 272200Z 00000KT 9999 FEW020 30/25 Q1013 A2991 HR73 RWY NML =

SLSI

San Ignacio de Velasco

16-23S|60-57W

23:00

SLSI 272300Z 00000KT 9999 SCT017 BKN070 24/23 Q1011 A2985 HR93 RWY HUM OPR=

SLVR

Internaci贸nal Viru Viru

17-38S|63-08W

08:00

SLVR 280800Z 00000KT 9999 SCT070 23/22 Q1010 A2983 HR90 NOSIG=

SLET

El Trompillo

17-48S|63-10W

23:00

SLET 272300Z 18006KT 9999 FEW017 FEW030CB BKN200 28/21 Q1010 A29.84 HR66 AC CB DIST N/NE NOSIG=

SLJE

San Jos茅 de Chiquitos

17-49S|60-44W

22:00

SLJE 272200Z 00000KT 9999 FEW017 OVC200 29/24 Q1011 A2985 HR73 RWY HUM OPR C206=

SLRB

Robor茅

18-19S|59-45W

23:00

SLRB 272300Z 00000KT 9999 NSC 28/25 Q1011 A2985 HR84 RWY NML=

SLVG

Valle Grande

18-28S|64-05W

21:00

SLVG 272100Z 16004KT 9999 SCT027 BKN200 19/13 Q1024 A3024 HR70 RWY NML=

SLPS

Puerto Su谩rez

18-58S|57-49W

23:00

SLPS 272300Z 00000KT 9999 SCT020 SCT070 29/25 Q1009 A2980 HR79=

SLCA

Camiri

20-00S|63-31W

23:00

SLCA 272300Z 00000KT 9999 SCT036 BKN200 25/18 Q1016 A3000 HR64 RWY NML=

Regional Beni

ESTACIÓN

AEROPUERTO

HORA UTC

DESCRIPCIÓN

SLGM

Guayaramer铆n

10-49S|65-20W

23:00

SLGM 272300Z 00000KT 9999 SCT008 FEW020CB OVC070 24/23 Q1009 A2982 HR96 CB W=

SLRI

Riberalta

11-00S|66-04W

23:00

SLRI 272300Z 00000KT 8000 VCSH BKN005 FEW020CB OVC070 23 Q1010 A2983 HR92 CB/SH SW/W=

SLCO

Cobija

11-02S|68-47W

22:00

SLCO 272200Z 15008KT 3000 -TSRA BKN004 FEW020CB OVC070 23/23 Q1010 A2983 982.9 HR100 TS/N/S/SW/W CB/N/S/SW/W/NW=

SLJO

San Joaquin

13-03S|64-39W

22:00

SLJO 272200Z 00000KT 9999 SCT015 BKN070 OVC200 24/23 Q1009 A2980 HR92 RWY OPR C206=

SLMG

San Magdalena

13-15S|64-03W

23:00

SLMG 272300Z 00000KT 9999 FEW020 BKN200 25/24 Q1009 A2979 HR91 RWY NML=

SLRA

San Ram贸n

13-15S|64-36W

22:00

SLRA 272200Z 00000KT 9999 FEW015 SCT080 OVC200 25/23 Q1008 A2977 HR88 RWY OPR C212=

SLBU

Baures

13-39S|63-42W

22:00

SLBU 272200Z 35004KT 9999 SCT015 BKN200 26/24 Q1009 A2980 HR85 RWY HUM OPR=

SLSA

Santa Ana de Yacuma

13-45S|65-26W

23:00

SLSA 272300Z 00000KT 9999 SCT015 BKN070 OVC200 24/23 Q1007 A2976 HR92=

SLSR

Santa Rosa

14-04S|66-47W

22:00

SLSR 272200Z 00000KT 9999 SCT015 BKN070 OVC200 24/24 Q1003 A2964 HR96 RWY WET OPR C206=

SLTR

Trinidad

14-49S|64-54W

-

SLTR 280000Z 00000KT 9999 FEW020CB BKN200 25/24 Q1011 A2986 992.7 HR92 CB/LT S NOSIG=

SLSM

San Ignacio de Moxos

14-57S|65-38W

22:00

SLSM 272200Z 00000KT 9999 SCT015 BKN200 26/24 Q1007 A2976 HR91 RWY OPR C206=